Time;durP1;ratioP1;P1;durP2;ratioP2;P2;SDS_P1;SDS_P2;PMS_P1;PMS_P2;Temp;Humidity;BMP_temperature;BMP_pressure;BME280_temperature;BME280_humidity;BME280_pressure;Samples;Min_cycle;Max_cycle;Signal;HPM_P1;HPM_P2
2023/04/22 00:00:14;;;;;;;0.50;0.50;;;;;;;7.38;46.95;98700.59;5065051;28;20070;-84
2023/04/22 00:02:42;;;;;;;0.60;0.60;;;;;;;7.31;47.31;98702.56;5036290;28;20048;-85
2023/04/22 00:05:12;;;;;;;0.60;0.60;;;;;;;7.23;47.47;98696.72;5053243;28;20041;-85
2023/04/22 00:07:44;;;;;;;;;;;;;;;7.09;47.17;98698.78;5053870;28;20057;-86
2023/04/22 00:10:11;;;;;;;0.70;0.70;;;;;;;7.01;47.99;98701.81;5034677;28;20390;-85
2023/04/22 00:12:39;;;;;;;0.60;0.60;;;;;;;7.02;47.92;98698.09;5035490;28;20051;-85
2023/04/22 00:15:06;;;;;;;0.60;0.60;;;;;;;7.03;48.19;98699.72;5057876;28;20068;-85
2023/04/22 00:17:33;;;;;;;0.63;0.63;;;;;;;6.94;48.01;98694.69;5061907;28;20539;-85
2023/04/22 00:20:00;;;;;;;0.60;0.60;;;;;;;6.94;48.50;98701.91;5052537;28;20045;-85
2023/04/22 00:22:31;;;;;;;0.60;0.60;;;;;;;6.91;48.75;98696.97;5035687;28;20135;-85
2023/04/22 00:24:58;;;;;;;0.60;0.60;;;;;;;6.86;48.39;98697.69;5052608;28;20060;-84
2023/04/22 00:27:26;;;;;;;0.50;0.50;;;;;;;6.82;48.81;98699.19;5034702;28;20052;-85
2023/04/22 00:29:53;;;;;;;0.60;0.60;;;;;;;6.83;48.83;98700.81;5035159;28;20583;-88
2023/04/22 00:32:21;;;;;;;0.60;0.60;;;;;;;6.81;48.87;98694.03;5052739;28;20084;-87
2023/04/22 00:34:49;;;;;;;0.60;0.60;;;;;;;6.75;49.27;98703.81;5052888;28;20708;-87
2023/04/22 00:37:17;;;;;;;0.60;0.60;;;;;;;6.75;49.54;98703.81;5053070;28;20470;-87
2023/04/22 00:39:52;;;;;;;0.60;0.60;;;;;;;6.78;49.59;98702.53;5021111;28;20044;-85
2023/04/22 00:42:20;;;;;;;0.52;0.52;;;;;;;6.76;49.36;98705.47;5019323;28;20045;-87
2023/04/22 00:44:49;;;;;;;0.60;0.60;;;;;;;6.71;49.66;98703.47;5035823;28;20049;-87
2023/04/22 00:47:16;;;;;;;0.60;0.60;;;;;;;6.69;49.76;98702.84;5018121;28;20709;-85
2023/04/22 00:49:47;;;;;;;0.60;0.60;;;;;;;6.64;49.79;98696.53;5019371;28;20048;-88
2023/04/22 00:52:14;;;;;;;0.60;0.60;;;;;;;6.55;50.00;98687.16;5035740;28;20048;-87
2023/04/22 00:54:42;;;;;;;0.60;0.60;;;;;;;6.61;49.94;98697.81;5054059;28;20052;-86
2023/04/22 00:57:09;;;;;;;0.60;0.60;;;;;;;6.46;50.08;98684.81;5015192;28;20140;-86
2023/04/22 00:59:36;;;;;;;0.65;0.65;;;;;;;6.50;50.28;98699.38;5024477;28;20049;-86
2023/04/22 01:02:04;;;;;;;0.70;0.70;;;;;;;6.55;50.52;98697.88;5034613;28;20102;-87
2023/04/22 01:04:31;;;;;;;0.70;0.70;;;;;;;6.53;50.33;98705.34;5034359;28;20045;-86
2023/04/22 01:07:00;;;;;;;0.60;0.60;;;;;;;6.46;50.71;98700.88;5053040;28;20128;-86
2023/04/22 01:09:27;;;;;;;0.60;0.60;;;;;;;6.43;50.82;98701.34;5052125;28;20045;-87
2023/04/22 01:11:55;;;;;;;0.60;0.60;;;;;;;6.38;51.04;98687.78;5051975;28;20049;-87
2023/04/22 01:14:24;;;;;;;0.60;0.60;;;;;;;6.40;51.16;98691.03;5033972;28;20053;-85
2023/04/22 01:16:54;;;;;;;0.60;0.60;;;;;;;6.40;51.32;98692.91;5033403;28;20052;-86
2023/04/22 01:19:22;;;;;;;0.60;0.60;;;;;;;6.34;51.21;98702.69;5052091;28;20140;-86
2023/04/22 01:21:50;;;;;;;0.60;0.60;;;;;;;6.23;51.41;98693.53;5018679;28;20049;-86
2023/04/22 01:24:22;;;;;;;0.70;0.70;;;;;;;6.26;51.77;98697.63;5001841;28;20053;-86
2023/04/22 01:26:50;;;;;;;0.60;0.60;;;;;;;6.21;51.50;98689.44;5065087;28;20057;-86
2023/04/22 01:29:19;;;;;;;0.63;0.63;;;;;;;6.16;51.75;98698.16;5065235;28;20045;-86
2023/04/22 01:31:46;;;;;;;0.60;0.60;;;;;;;6.17;51.93;98697.09;5035856;28;20057;-87
2023/04/22 01:34:13;;;;;;;0.60;0.60;;;;;;;6.19;51.96;98695.00;5051662;28;20119;-87
2023/04/22 01:36:41;;;;;;;0.70;0.70;;;;;;;6.20;51.76;98690.47;5017446;28;20052;-87
2023/04/22 01:39:08;;;;;;;0.60;0.60;;;;;;;6.20;51.99;98695.81;5051467;28;20488;-86
2023/04/22 01:41:35;;;;;;;0.65;0.65;;;;;;;6.18;51.76;98697.91;5017364;28;20468;-86
2023/04/22 01:44:02;;;;;;;0.60;0.60;;;;;;;6.07;52.09;98696.78;5033278;28;20045;-85
2023/04/22 01:46:29;;;;;;;0.60;0.60;;;;;;;6.00;52.57;98690.69;5017468;28;20094;-84
2023/04/22 01:48:57;;;;;;;0.70;0.70;;;;;;;5.97;52.73;98683.09;5029981;28;20148;-85
2023/04/22 01:51:24;;;;;;;0.50;0.50;;;;;;;5.96;52.70;98693.00;5031205;28;20056;-85
2023/04/22 01:53:51;;;;;;;0.60;0.60;;;;;;;5.94;52.58;98689.72;5033091;28;20064;-85
2023/04/22 01:56:18;;;;;;;0.60;0.60;;;;;;;5.89;52.67;98686.03;5045856;28;20049;-85
2023/04/22 01:58:48;;;;;;;0.60;0.60;;;;;;;5.83;52.90;98683.22;5013603;28;20080;-87
2023/04/22 02:01:15;;;;;;;0.60;0.60;;;;;;;5.84;53.25;98687.50;5031791;28;20087;-88
2023/04/22 02:03:42;;;;;;;0.60;0.60;;;;;;;5.90;52.89;98683.16;5030177;28;20077;-86
2023/04/22 02:06:11;;;;;;;0.70;0.70;;;;;;;6.01;52.79;98679.75;5031764;28;20045;-87
2023/04/22 02:08:39;;;;;;;0.60;0.60;;;;;;;6.12;52.77;98688.09;5021912;28;20049;-85
2023/04/22 02:11:06;;;;;;;0.70;0.70;;;;;;;6.06;52.69;98690.63;5052030;28;20046;-88
2023/04/22 02:13:39;;;;;;;0.60;0.60;;;;;;;6.00;52.71;98694.19;5016188;28;20170;-86
2023/04/22 02:16:08;;;;;;;0.60;0.60;;;;;;;5.94;53.00;98683.53;5031465;28;20088;-86
2023/04/22 02:18:35;;;;;;;0.65;0.65;;;;;;;5.89;53.37;98688.72;5031943;28;20156;-87
2023/04/22 02:21:03;;;;;;;0.60;0.60;;;;;;;5.86;53.68;98692.66;5013151;28;20462;-87
2023/04/22 02:23:30;;;;;;;0.70;0.70;;;;;;;5.81;53.67;98689.81;5013841;28;20041;-87
2023/04/22 02:25:57;;;;;;;0.70;0.70;;;;;;;5.80;53.68;98690.88;5030286;28;20053;-86
2023/04/22 02:28:24;;;;;;;0.70;0.70;;;;;;;5.76;53.83;98692.34;5033885;28;20053;-85
2023/04/22 02:30:52;;;;;;;0.60;0.60;;;;;;;5.72;53.77;98680.44;5032944;28;20046;-86
2023/04/22 02:33:22;;;;;;;0.68;0.68;;;;;;;5.57;54.19;98680.78;5015986;28;20594;-87
2023/04/22 02:35:51;;;;;;;0.70;0.70;;;;;;;5.60;54.42;98683.84;5031012;28;20420;-86
2023/04/22 02:38:19;;;;;;;0.60;0.60;;;;;;;5.68;54.44;98684.59;5030760;28;20080;-86
2023/04/22 02:40:48;;;;;;;0.70;0.70;;;;;;;5.68;54.29;98688.09;4997270;28;20495;-87
2023/04/22 02:43:24;;;;;;;0.60;0.60;;;;;;;5.81;54.46;98692.50;5030785;28;20046;-87
2023/04/22 02:45:54;;;;;;;0.60;0.60;;;;;;;5.85;54.10;98691.84;5030194;28;20045;-87
2023/04/22 02:48:21;;;;;;;0.60;0.60;;;;;;;5.96;53.93;98690.31;5029910;28;20050;-86
2023/04/22 02:50:48;;;;;;;0.65;0.65;;;;;;;6.05;53.58;98694.34;5029787;28;20086;-86
2023/04/22 02:53:15;;;;;;;0.70;0.70;;;;;;;6.12;53.50;98704.16;5028908;28;20069;-85
2023/04/22 02:55:43;;;;;;;0.60;0.60;;;;;;;6.16;53.37;98703.50;5012931;28;20096;-86
2023/04/22 02:58:10;;;;;;;0.60;0.60;;;;;;;6.21;53.16;98700.16;5029001;28;20077;-86
2023/04/22 03:00:40;;;;;;;0.70;0.70;;;;;;;6.25;53.18;98706.69;5029455;28;20508;-85
2023/04/22 03:03:07;;;;;;;0.70;0.70;;;;;;;6.28;53.12;98703.59;5030830;28;20073;-84
2023/04/22 03:05:34;;;;;;;0.60;0.60;;;;;;;6.35;53.21;98704.31;5030615;28;20069;-85
2023/04/22 03:08:01;;;;;;;0.57;0.57;;;;;;;6.41;53.06;98713.34;5028782;28;20069;-83
2023/04/22 03:10:29;;;;;;;0.50;0.50;;;;;;;6.49;52.85;98711.16;4992845;28;20045;-84
2023/04/22 03:12:56;;;;;;;0.60;0.60;;;;;;;6.54;52.83;98707.81;5008697;28;20062;-84
2023/04/22 03:15:25;;;;;;;0.60;0.60;;;;;;;6.59;52.99;98704.44;5010296;28;20060;-87
2023/04/22 03:17:54;;;;;;;0.70;0.70;;;;;;;6.68;52.86;98705.75;4962512;28;20054;-86
2023/04/22 03:20:22;;;;;;;0.60;0.60;;;;;;;6.80;52.66;98712.00;5028953;28;20045;-87
2023/04/22 03:22:51;;;;;;;0.60;0.60;;;;;;;6.91;52.27;98705.03;5029353;28;20527;-87
2023/04/22 03:25:19;;;;;;;0.70;0.70;;;;;;;7.00;52.18;98706.34;5030131;28;20045;-86
2023/04/22 03:27:51;;;;;;;0.60;0.60;;;;;;;7.13;51.63;98708.03;5028859;28;20543;-87
2023/04/22 03:30:18;;;;;;;0.60;0.60;;;;;;;7.28;51.13;98718.34;5028962;28;20050;-86
2023/04/22 03:32:48;;;;;;;0.70;0.70;;;;;;;7.35;51.02;98709.13;5033913;28;20100;-87
2023/04/22 03:35:25;;;;;;;0.70;0.70;;;;;;;7.49;50.74;98714.28;5049343;28;20136;-86
2023/04/22 03:37:53;;;;;;;0.68;0.68;;;;;;;7.62;50.24;98713.25;5033247;28;20050;-87
2023/04/22 03:40:25;;;;;;;0.57;0.57;;;;;;;7.65;50.12;98713.63;5016799;28;20073;-87
2023/04/22 03:42:58;;;;;;;0.60;0.60;;;;;;;7.76;50.08;98720.03;5033632;28;20049;-86
2023/04/22 03:45:29;;;;;;;0.80;0.80;;;;;;;7.78;49.94;98724.13;5017315;28;20083;-86
2023/04/22 03:48:22;;;;;;;0.60;0.60;;;;;;;7.93;49.69;98725.53;5038788;28;20056;-87
2023/04/22 03:50:51;;;;;;;0.70;0.70;;;;;;;8.00;49.77;98720.84;5020363;28;20508;-86
2023/04/22 03:53:18;;;;;;;0.60;0.60;;;;;;;8.11;49.26;98722.72;5034083;28;20057;-87
2023/04/22 03:55:46;;;;;;;0.63;0.63;;;;;;;8.19;49.34;98725.03;5016596;28;20049;-85
2023/04/22 03:58:14;;;;;;;0.60;0.60;;;;;;;8.33;49.05;98724.78;5016127;28;20103;-85
2023/04/22 04:00:42;;;;;;;0.60;0.60;;;;;;;8.36;48.73;98719.75;5031854;28;20542;-83
2023/04/22 04:03:14;;;;;;;0.60;0.60;;;;;;;8.42;48.19;98724.22;5001278;28;20081;-88
2023/04/22 04:05:44;;;;;;;0.60;0.60;;;;;;;8.48;48.28;98718.94;5017409;28;20054;-87
2023/04/22 04:08:12;;;;;;;0.60;0.60;;;;;;;8.57;48.05;98726.41;5024309;28;20049;-87
2023/04/22 04:10:40;;;;;;;0.65;0.65;;;;;;;8.61;47.83;98724.88;5038817;28;20073;-87
2023/04/22 04:13:08;;;;;;;0.60;0.60;;;;;;;8.71;47.73;98731.50;5024211;28;20061;-85
2023/04/22 04:15:45;;;;;;;0.60;0.60;;;;;;;8.81;47.49;98729.84;5031024;28;20061;-86
2023/04/22 04:18:14;;;;;;;0.70;0.70;;;;;;;8.89;47.43;98729.47;5039590;28;20041;-87
2023/04/22 04:20:42;;;;;;;0.63;0.63;;;;;;;8.96;47.22;98731.97;5031132;28;20078;-88
2023/04/22 04:23:09;;;;;;;0.60;0.60;;;;;;;9.06;46.92;98731.34;5056280;28;20056;-86
2023/04/22 04:25:37;;;;;;;0.70;0.70;;;;;;;9.13;46.60;98736.59;5036448;28;20116;-88
2023/04/22 04:28:10;;;;;;;0.60;0.60;;;;;;;9.18;46.71;98734.00;5035140;28;20049;-87
2023/04/22 04:30:55;;;;;;;0.70;0.70;;;;;;;9.23;46.31;98732.22;5053235;28;20130;-87
2023/04/22 04:33:22;;;;;;;0.60;0.60;;;;;;;9.33;46.15;98734.28;5018870;28;20412;-86
2023/04/22 04:35:50;;;;;;;0.70;0.70;;;;;;;9.43;45.79;98741.72;5035912;28;20045;-89
2023/04/22 04:38:46;;;;;;;0.60;0.60;;;;;;;9.55;45.60;98734.38;5068527;22;20049;-86
2023/04/22 04:41:27;;;;;;;0.60;0.60;;;;;;;9.59;44.90;98721.22;5030688;28;20064;-85
2023/04/22 04:43:55;;;;;;;0.60;0.60;;;;;;;9.59;44.85;98722.03;5014857;28;20119;-85
2023/04/22 04:46:28;;;;;;;0.60;0.60;;;;;;;9.74;44.55;98729.56;5010182;28;20122;-84
2023/04/22 04:48:59;;;;;;;0.60;0.60;;;;;;;9.86;44.48;98729.47;5051521;28;20140;-86
2023/04/22 04:51:36;;;;;;;0.60;0.60;;;;;;;10.05;44.41;98730.00;5034289;28;20049;-86
2023/04/22 04:54:04;;;;;;;0.60;0.60;;;;;;;10.22;44.21;98728.09;5051718;28;20067;-86
2023/04/22 04:56:36;;;;;;;0.70;0.70;;;;;;;10.27;43.33;98730.88;5018256;28;20091;-86
2023/04/22 04:59:04;;;;;;;0.60;0.60;;;;;;;10.33;43.21;98740.72;5009476;28;20524;-86
2023/04/22 05:01:36;;;;;;;0.60;0.60;;;;;;;10.45;43.22;98742.47;4979149;28;20053;-86
2023/04/22 05:04:07;;;;;;;0.60;0.60;;;;;;;10.45;42.77;98735.19;5011544;28;20137;-86
2023/04/22 05:06:43;;;;;;;0.60;0.60;;;;;;;10.52;42.83;98735.00;4996863;28;20054;-87
2023/04/22 05:09:11;;;;;;;0.60;0.60;;;;;;;10.74;42.35;98743.13;4995049;28;20057;-88
2023/04/22 05:11:39;;;;;;;0.60;0.60;;;;;;;10.81;41.69;98738.31;4990869;28;20053;-87
2023/04/22 05:17:01;;;;;;;0.60;0.60;;;;;;;10.95;40.98;98749.56;4999381;28;20180;-87
2023/04/22 05:19:29;;;;;;;0.57;0.57;;;;;;;11.02;40.76;98748.28;5015251;28;20490;-87
2023/04/22 05:22:01;;;;;;;0.60;0.60;;;;;;;11.05;40.58;98749.66;5001493;28;20080;-85
2023/04/22 05:24:29;;;;;;;0.60;0.60;;;;;;;11.09;40.64;98749.97;4998922;28;20502;-86
2023/04/22 05:26:57;;;;;;;0.60;0.60;;;;;;;11.11;40.09;98748.63;4670868;28;10000377;-86
2023/04/22 05:29:30;;;;;;;0.60;0.60;;;;;;;11.16;40.10;98743.28;5010593;28;20072;-88
2023/04/22 05:32:57;;;;;;;0.60;0.60;;;;;;;11.25;40.31;98749.88;5025908;28;20626;-87
2023/04/22 05:36:02;;;;;;;0.60;0.60;;;;;;;11.34;39.92;98749.41;4984727;28;20361;-88
2023/04/22 05:38:30;;;;;;;0.60;0.60;;;;;;;11.38;39.69;98729.72;5022702;28;20041;-88
2023/04/22 05:40:57;;;;;;;0.60;0.60;;;;;;;11.70;39.20;98747.84;4995264;28;20053;-90
2023/04/22 05:43:29;;;;;;;0.60;0.60;;;;;;;11.70;38.89;98743.25;4994779;28;20045;-89
2023/04/22 05:46:04;;;;;;;0.60;0.60;;;;;;;11.63;38.69;98736.44;4999449;28;20519;-89
2023/04/22 05:48:37;;;;;;;0.50;0.50;;;;;;;11.67;38.68;98746.47;5015041;28;20057;-89
2023/04/22 05:51:09;;;;;;;0.70;0.70;;;;;;;11.79;38.06;98748.19;5018700;28;20064;-87
2023/04/22 05:53:36;;;;;;;0.60;0.60;;;;;;;11.92;38.31;98747.75;5017480;28;20049;-88
2023/04/22 05:56:04;;;;;;;0.60;0.60;;;;;;;12.13;38.42;98754.16;5016655;28;20053;-88
2023/04/22 05:58:33;;;;;;;0.60;0.60;;;;;;;12.20;38.08;98748.50;5005059;28;20064;-86
2023/04/22 06:01:16;;;;;;;0.50;0.50;;;;;;;12.24;37.64;98749.59;4977603;28;20054;-88
2023/04/22 06:04:15;;;;;;;0.60;0.60;;;;;;;12.24;37.58;98747.72;4958674;28;20094;-89
2023/04/22 06:06:43;;;;;;;0.60;0.60;;;;;;;12.26;37.69;98753.69;4946289;28;20093;-89
2023/04/22 06:09:13;;;;;;;0.60;0.60;;;;;;;12.30;37.62;98751.25;4982800;28;20137;-88
2023/04/22 06:11:41;;;;;;;0.60;0.60;;;;;;;12.34;37.07;98747.78;4962704;28;20081;-87
2023/04/22 06:14:14;;;;;;;0.60;0.60;;;;;;;12.49;37.32;98755.16;4936300;28;20077;-85
2023/04/22 06:16:43;;;;;;;0.60;0.60;;;;;;;12.66;37.03;98751.44;4951700;28;20053;-85
2023/04/22 06:19:10;;;;;;;0.60;0.60;;;;;;;12.72;36.51;98751.19;4982263;28;20529;-85
2023/04/22 06:21:42;;;;;;;0.60;0.60;;;;;;;12.74;36.85;98748.25;4981872;28;20578;-84
2023/04/22 06:24:09;;;;;;;0.52;0.52;;;;;;;12.85;36.43;98759.91;4965582;28;20138;-84
2023/04/22 06:26:37;;;;;;;0.60;0.60;;;;;;;12.82;36.52;98747.72;4947421;28;20058;-83
2023/04/22 06:29:07;;;;;;;0.50;0.50;;;;;;;12.86;36.42;98748.81;4966712;28;20066;-84
2023/04/22 06:31:37;;;;;;;0.60;0.60;;;;;;;13.04;36.29;98746.69;4964438;28;20047;-86
2023/04/22 06:34:33;;;;;;;0.60;0.60;;;;;;;13.33;36.07;98749.78;4966787;28;20059;-84
2023/04/22 06:37:21;;;;;;;0.50;0.50;;;;;;;13.34;35.81;98740.56;4954772;28;20057;-82
2023/04/22 06:39:49;;;;;;;0.50;0.50;;;;;;;13.40;35.49;98745.72;4987142;28;20065;-81
2023/04/22 06:42:54;;;;;;;0.60;0.60;;;;;;;13.33;35.32;98744.38;5031099;28;20045;-84
2023/04/22 06:45:41;;;;;;;0.50;0.50;;;;;;;13.27;35.43;98748.13;5031841;28;20138;-82
2023/04/22 06:48:26;;;;;;;0.50;0.50;;;;;;;13.35;35.64;98753.03;5032774;28;20049;-83
2023/04/22 06:51:18;;;;;;;0.60;0.60;;;;;;;13.44;35.17;98735.16;5026521;28;20049;-84
2023/04/22 06:53:45;;;;;;;0.60;0.60;;;;;;;13.54;35.15;98735.16;5013350;28;20147;-87
2023/04/22 06:56:34;;;;;;;0.50;0.50;;;;;;;13.68;34.74;98738.16;5038078;28;20046;-88
2023/04/22 06:59:02;;;;;;;0.60;0.60;;;;;;;13.70;34.47;98741.41;5000168;28;20046;-85
2023/04/22 07:01:29;;;;;;;0.60;0.60;;;;;;;13.68;35.02;98743.56;5014208;28;20099;-83
2023/04/22 07:03:56;;;;;;;0.50;0.50;;;;;;;13.58;34.37;98743.56;5020724;28;20107;-87
2023/04/22 07:06:24;;;;;;;0.55;0.55;;;;;;;13.51;34.98;98737.59;5045892;28;20073;-86
2023/04/22 07:08:52;;;;;;;0.70;0.70;;;;;;;13.79;34.44;98730.81;5008911;28;20049;-82
2023/04/22 07:11:23;;;;;;;0.60;0.60;;;;;;;13.69;34.37;98739.78;5012606;28;20049;-84
2023/04/22 07:13:57;;;;;;;0.50;0.50;;;;;;;13.52;34.34;98733.78;4996399;28;20095;-83
2023/04/22 07:16:25;;;;;;;0.60;0.60;;;;;;;13.50;34.76;98728.66;5031682;28;20061;-81
2023/04/22 07:18:52;;;;;;;0.50;0.50;;;;;;;13.86;34.28;98726.75;5033567;28;20503;-82
2023/04/22 07:21:20;;;;;;;0.50;0.50;;;;;;;13.92;33.65;98737.59;5034167;28;20578;-84
2023/04/22 07:23:47;;;;;;;0.40;0.40;;;;;;;13.67;33.78;98747.34;5031505;28;20136;-84
2023/04/22 07:26:20;;;;;;;0.50;0.50;;;;;;;13.88;33.55;98742.75;5028901;28;20140;-85
2023/04/22 07:28:51;;;;;;;0.50;0.50;;;;;;;14.02;33.48;98738.38;5029452;28;20179;-85
2023/04/22 07:31:19;;;;;;;0.60;0.60;;;;;;;14.50;33.14;98738.00;5027418;28;20077;-84
2023/04/22 07:33:49;;;;;;;0.50;0.50;;;;;;;14.98;32.80;98724.00;5032820;28;20104;-83
2023/04/22 07:36:16;;;;;;;0.60;0.60;;;;;;;15.48;32.38;98732.94;4999190;28;20092;-82
2023/04/22 07:38:45;;;;;;;0.60;0.60;;;;;;;15.93;31.80;98728.25;5030085;28;20053;-83
2023/04/22 07:41:12;;;;;;;0.50;0.50;;;;;;;16.01;31.17;98738.50;5032918;28;20049;-84
2023/04/22 07:43:45;;;;;;;0.50;0.50;;;;;;;15.39;31.54;98746.28;5032970;28;20049;-82
2023/04/22 07:46:14;;;;;;;0.40;0.40;;;;;;;15.08;31.25;98732.91;5033039;28;20064;-83
2023/04/22 07:48:42;;;;;;;0.50;0.50;;;;;;;14.39;31.57;98745.38;5015186;28;20041;-83
2023/04/22 07:51:11;;;;;;;0.40;0.40;;;;;;;14.03;32.61;98744.66;5015055;28;20082;-83
2023/04/22 07:53:41;;;;;;;0.40;0.40;;;;;;;13.83;32.50;98743.56;5032517;28;20069;-83
2023/04/22 07:56:08;;;;;;;0.50;0.50;;;;;;;13.51;32.76;98743.84;5014709;28;20057;-84
2023/04/22 07:58:35;;;;;;;0.40;0.40;;;;;;;13.30;33.05;98755.75;5015137;28;20115;-83
2023/04/22 08:01:05;;;;;;;0.50;0.50;;;;;;;13.24;33.70;98735.91;5032642;28;20063;-84
2023/04/22 08:03:35;;;;;;;0.50;0.50;;;;;;;13.56;33.17;98740.31;5031737;28;20053;-83
2023/04/22 08:06:02;;;;;;;0.50;0.50;;;;;;;13.58;33.02;98741.66;5014639;28;20483;-83
2023/04/22 08:08:39;;;;;;;0.60;0.60;;;;;;;13.76;32.89;98748.44;5032763;28;20049;-84
2023/04/22 08:11:07;;;;;;;0.50;0.50;;;;;;;14.02;32.60;98743.81;5032352;28;20080;-85
2023/04/22 08:16:27;;;;;;;0.50;0.50;;;;;;;14.43;32.29;98741.03;5032948;28;20403;-84
2023/04/22 08:18:56;;;;;;;0.50;0.50;;;;;;;14.61;31.98;98727.94;5031783;28;20587;-85
2023/04/22 08:21:23;;;;;;;0.50;0.50;;;;;;;14.71;32.21;98752.34;5015341;28;20053;-84
2023/04/22 08:23:54;;;;;;;0.50;0.50;;;;;;;14.61;32.43;98747.81;5035023;28;20115;-83
2023/04/22 08:26:21;;;;;;;0.50;0.50;;;;;;;14.61;32.38;98750.53;5022247;28;20045;-83
2023/04/22 08:28:48;;;;;;;0.70;0.70;;;;;;;14.90;31.42;98736.25;5015117;28;20081;-84
2023/04/22 08:31:16;;;;;;;0.50;0.50;;;;;;;14.72;31.44;98738.50;5014537;28;20045;-83
2023/04/22 08:33:44;;;;;;;0.50;0.50;;;;;;;14.73;31.26;98745.56;5032569;28;20500;-83
2023/04/22 08:36:11;;;;;;;0.70;0.70;;;;;;;14.87;31.13;98745.78;5034363;28;20045;-84
2023/04/22 08:38:39;;;;;;;0.90;0.90;;;;;;;16.66;28.67;98748.97;5035080;28;20095;-83
2023/04/22 08:41:09;;;;;;;0.90;0.90;;;;;;;18.03;26.58;98739.13;5015793;28;20054;-83
2023/04/22 08:43:38;;;;;;;0.60;0.60;;;;;;;17.50;27.64;98737.53;5032316;28;20140;-84
2023/04/22 08:46:06;;;;;;;0.65;0.65;;;;;;;17.23;27.63;98749.91;5031395;28;20049;-83
2023/04/22 08:48:36;;;;;;;0.45;0.45;;;;;;;16.62;28.18;98745.22;4998468;28;20042;-83
2023/04/22 08:51:07;;;;;;;0.50;0.50;;;;;;;16.05;29.32;98747.69;5017985;28;20049;-84
2023/04/22 08:53:34;;;;;;;0.45;0.45;;;;;;;15.96;29.85;98742.06;5046398;28;20176;-82
2023/04/22 08:56:01;;;;;;;0.40;0.40;;;;;;;15.73;29.72;98740.13;5032717;28;20469;-84
2023/04/22 08:58:31;;;;;;;0.40;0.40;;;;;;;15.48;29.57;98738.38;5030713;28;20053;-83
2023/04/22 09:01:03;;;;;;;0.40;0.40;;;;;;;15.91;29.31;98741.31;5031702;28;20077;-82
2023/04/22 09:03:30;;;;;;;0.50;0.50;;;;;;;15.98;29.28;98750.78;5014059;28;20049;-83
2023/04/22 09:06:02;;;;;;;0.50;0.50;;;;;;;15.74;29.34;98752.59;5014592;28;20061;-83
2023/04/22 09:08:31;;;;;;;0.47;0.47;;;;;;;15.11;28.75;98743.19;5031403;28;20137;-83
2023/04/22 09:11:02;;;;;;;0.40;0.40;;;;;;;15.01;29.39;98743.25;5031115;28;20079;-83
2023/04/22 09:13:31;;;;;;;0.50;0.50;;;;;;;15.33;29.51;98742.00;5013652;28;20065;-83
2023/04/22 09:16:01;;;;;;;0.47;0.47;;;;;;;15.55;29.04;98744.31;5030070;28;20568;-83
2023/04/22 09:18:28;;;;;;;0.50;0.50;;;;;;;15.67;28.99;98743.91;5031382;28;20060;-84
2023/04/22 09:20:56;;;;;;;0.40;0.40;;;;;;;15.57;29.23;98745.66;5031365;28;20532;-85
2023/04/22 09:23:23;;;;;;;0.40;0.40;;;;;;;15.51;29.45;98735.06;5031091;28;20053;-84
2023/04/22 09:25:50;;;;;;;0.40;0.40;;;;;;;15.46;29.55;98741.34;5013361;28;20512;-83
2023/04/22 09:28:18;;;;;;;0.50;0.50;;;;;;;15.64;29.16;98744.50;5031037;28;20049;-84
2023/04/22 09:31:12;;;;;;;0.85;0.85;;;;;;;16.80;28.24;98739.03;5013211;28;20056;-83
2023/04/22 09:33:59;;;;;;;0.50;0.50;;;;;;;17.94;26.96;98725.34;5013831;28;20072;-83
2023/04/22 09:36:28;;;;;;;0.73;0.73;;;;;;;18.99;25.55;98719.22;5030239;28;20045;-82
2023/04/22 09:38:58;;;;;;;0.80;0.80;;;;;;;20.04;24.72;98729.91;5030745;28;20080;-85
2023/04/22 09:41:31;;;;;;;0.90;0.90;;;;;;;20.77;22.99;98710.41;5008691;28;20551;-81
2023/04/22 09:44:25;;;;;;;0.75;0.75;;;;;;;20.33;23.45;98720.38;5024055;28;20511;-86
2023/04/22 09:46:53;;;;;;;0.40;0.40;;;;;;;19.63;23.89;98722.69;5020891;28;20253;-84
2023/04/22 09:49:20;;;;;;;0.50;0.50;;;;;;;19.36;24.19;98725.53;5025099;28;20601;-83
2023/04/22 09:51:55;;;;;;;0.40;0.40;;;;;;;18.46;24.93;98723.31;4968865;28;20574;-82
2023/04/22 09:54:23;;;;;;;;;;;;;;;18.90;25.61;98719.16;5001317;28;20053;-82
2023/04/22 09:56:53;;;;;;;0.40;0.40;;;;;;;17.92;26.53;98720.19;5034505;28;19933;-82
2023/04/22 09:59:44;;;;;;;0.40;0.40;;;;;;;17.15;27.45;98733.41;5033656;28;20064;-82
2023/04/22 10:02:13;;;;;;;0.32;0.32;;;;;;;16.47;28.78;98721.69;5039486;28;20551;-83
2023/04/22 10:04:41;;;;;;;0.40;0.40;;;;;;;16.34;28.93;98727.81;5039901;28;20055;-84
2023/04/22 10:07:08;;;;;;;0.40;0.40;;;;;;;15.98;29.16;98715.38;5018314;28;20691;-84
2023/04/22 10:09:38;;;;;;;0.50;0.50;;;;;;;15.76;29.19;98717.78;5044216;28;20053;-84
2023/04/22 10:12:06;;;;;;;0.40;0.40;;;;;;;15.65;28.97;98722.47;5024322;28;20132;-85
2023/04/22 10:14:33;;;;;;;0.50;0.50;;;;;;;15.21;28.72;98722.50;5021598;28;20057;-83
2023/04/22 10:17:02;;;;;;;0.63;0.63;;;;;;;15.69;28.29;98736.28;5093043;22;20090;-85
2023/04/22 10:19:31;;;;;;;0.80;0.80;;;;;;;18.15;25.31;98717.59;5070408;28;20511;-82
2023/04/22 10:22:02;;;;;;;0.90;0.90;;;;;;;19.94;23.76;98715.66;5051494;28;20052;-84
2023/04/22 10:24:34;;;;;;;0.90;0.90;;;;;;;21.34;21.50;98709.50;5047583;28;20079;-83
2023/04/22 10:27:07;;;;;;;0.80;0.80;;;;;;;22.56;20.65;98709.28;5051617;28;20048;-82
2023/04/22 10:29:42;;;;;;;0.80;0.80;;;;;;;22.87;19.66;98696.00;5070130;28;20121;-83
2023/04/22 10:32:10;;;;;;;0.40;0.40;;;;;;;21.35;21.32;98711.94;5067687;28;20075;-84
2023/04/22 10:40:15;;;;;;;0.40;0.40;;;;;;;19.70;23.18;98717.63;5058799;28;20041;-83
2023/04/22 10:42:49;;;;;;;0.40;0.40;;;;;;;18.94;23.68;98702.94;5073519;28;20059;-82
2023/04/22 10:45:16;;;;;;;0.40;0.40;;;;;;;18.10;24.53;98710.31;5067650;28;20057;-86
2023/04/22 10:47:43;;;;;;;0.30;0.30;;;;;;;17.52;25.49;98705.28;5056810;28;20127;-83
2023/04/22 10:50:30;;;;;;;0.40;0.40;;;;;;;17.10;26.55;98723.38;5072924;28;20151;-87
2023/04/22 10:53:01;;;;;;;0.40;0.40;;;;;;;16.92;27.07;98718.72;5049734;28;20151;-85
2023/04/22 10:55:51;;;;;;;0.80;0.80;;;;;;;18.92;25.49;98714.19;5074011;28;20056;-83
2023/04/22 10:58:20;;;;;;;0.50;0.50;;;;;;;19.06;25.36;98714.16;5055045;28;20055;-84
2023/04/22 11:00:58;;;;;;;0.90;0.90;;;;;;;21.02;23.81;98721.75;5054276;28;20068;-84
2023/04/22 11:03:28;;;;;;;0.60;0.60;;;;;;;21.68;22.85;98727.13;5074251;28;20059;-82
2023/04/22 11:06:21;;;;;;;0.40;0.40;;;;;;;20.78;22.77;98715.56;5089094;28;20044;-82
2023/04/22 11:08:49;;;;;;;0.40;0.40;;;;;;;19.68;23.45;98716.31;5072491;28;20052;-90
2023/04/22 11:11:17;;;;;;;0.32;0.32;;;;;;;18.66;25.07;98707.59;5038862;28;20585;-85
2023/04/22 11:13:49;;;;;;;0.90;0.90;;;;;;;19.78;24.28;98726.22;5056045;28;20080;-83
2023/04/22 11:16:21;;;;;;;0.80;0.80;;;;;;;21.74;22.41;98712.91;5054548;28;20052;-82
2023/04/22 11:18:49;;;;;;;0.80;0.80;;;;;;;23.12;21.31;98709.97;5052139;28;20056;-82
2023/04/22 11:21:19;;;;;;;0.40;0.40;;;;;;;23.23;20.10;98704.84;5053189;28;20400;-82
2023/04/22 11:23:52;;;;;;;0.30;0.30;;;;;;;21.75;21.21;98710.94;5067166;28;20094;-82
2023/04/22 11:26:33;;;;;;;0.60;0.60;;;;;;;23.21;20.33;98698.88;5052499;28;20140;-83
2023/04/22 11:29:01;;;;;;;0.80;0.80;;;;;;;24.41;19.20;98695.25;5070080;28;20052;-83
2023/04/22 11:31:28;;;;;;;0.70;0.70;;;;;;;25.41;17.86;98705.88;5072890;28;20055;-84
2023/04/22 11:34:04;;;;;;;0.50;0.50;;;;;;;24.63;18.44;98692.06;5073958;28;20418;-84
2023/04/22 11:36:32;;;;;;;0.40;0.40;;;;;;;25.08;18.27;98693.84;5075689;28;20522;-82
2023/04/22 11:38:59;;;;;;;0.30;0.30;;;;;;;23.33;19.57;98697.00;5074408;28;20044;-82
2023/04/22 11:41:30;;;;;;;0.30;0.30;;;;;;;21.81;20.78;98701.44;5090001;28;20054;-82
2023/04/22 11:44:00;;;;;;;0.30;0.30;;;;;;;20.76;22.04;98689.59;5093727;28;20441;-82
2023/04/22 11:46:38;;;;;;;0.40;0.40;;;;;;;20.17;22.91;98700.81;5078064;28;20455;-84
2023/04/22 11:49:15;;;;;;;0.30;0.30;;;;;;;19.53;23.58;98706.50;5088865;28;21066;-84
2023/04/22 11:51:53;;;;;;;0.30;0.30;;;;;;;19.33;23.80;98699.59;5072821;28;20534;-83
2023/04/22 11:54:34;;;;;;;0.60;0.60;;;;;;;21.03;22.30;98707.72;5070761;28;20066;-84
2023/04/22 11:57:12;;;;;;;0.80;0.80;;;;;;;22.11;21.29;98701.53;5077118;28;20048;-83
2023/04/22 11:59:41;;;;;;;0.80;0.80;;;;;;;23.93;19.83;98696.78;5079337;28;20060;-82
2023/04/22 12:02:08;;;;;;;0.70;0.70;;;;;;;25.30;18.66;98691.75;5072320;28;20106;-83
2023/04/22 12:04:40;;;;;;;0.80;0.80;;;;;;;26.01;18.13;98690.19;5038206;28;20052;-83